Time;durP1;ratioP1;P1;durP2;ratioP2;P2;SDS_P1;SDS_P2;PMS_P1;PMS_P2;Temp;Humidity;BMP_temperature;BMP_pressure;BME280_temperature;BME280_humidity;BME280_pressure;Samples;Min_cycle;Max_cycle;Signal;HPM_P1;HPM_P2
2021/10/03 00:02:10;;;;;;;4.57;3.87;;;11.80;99.90;;;;;;5096786;28;20176;-80
2021/10/03 00:04:39;;;;;;;5.33;3.80;;;11.80;99.90;;;;;;5099248;28;20637;-80
2021/10/03 00:07:06;;;;;;;4.27;3.60;;;11.70;99.90;;;;;;5099317;28;20172;-80
2021/10/03 00:09:32;;;;;;;5.83;3.60;;;11.70;99.90;;;;;;5097856;28;20275;-80
2021/10/03 00:11:58;;;;;;;3.83;3.13;;;11.70;99.90;;;;;;5097766;28;20207;-80
2021/10/03 00:14:24;;;;;;;4.73;3.63;;;11.70;99.90;;;;;;5097389;28;20630;-80
2021/10/03 00:16:52;;;;;;;3.33;2.83;;;11.70;99.90;;;;;;5096835;28;20195;-80
2021/10/03 00:19:19;;;;;;;3.53;3.10;;;11.80;99.90;;;;;;5098563;28;20204;-80
2021/10/03 00:21:45;;;;;;;3.77;3.10;;;11.80;99.90;;;;;;5097229;28;20183;-80
2021/10/03 00:24:12;;;;;;;4.70;3.47;;;11.80;99.90;;;;;;5098406;28;20168;-80
2021/10/03 00:26:39;;;;;;;4.30;3.60;;;11.90;99.90;;;;;;5099720;28;20180;-80
2021/10/03 00:29:05;;;;;;;4.60;2.90;;;11.90;99.90;;;;;;5100362;28;20278;-80
2021/10/03 00:31:32;;;;;;;4.10;3.50;;;11.90;99.90;;;;;;5098804;28;20211;-80
2021/10/03 00:33:58;;;;;;;4.17;3.60;;;11.90;99.90;;;;;;5098844;28;20176;-80
2021/10/03 00:36:24;;;;;;;4.00;3.43;;;11.90;99.90;;;;;;5099687;28;20258;-80
2021/10/03 00:38:50;;;;;;;4.77;3.03;;;11.80;99.90;;;;;;5100165;28;20232;-80
2021/10/03 00:41:17;;;;;;;3.37;3.03;;;11.80;99.90;;;;;;5099061;28;20229;-80
2021/10/03 00:43:42;;;;;;;4.47;2.90;;;11.80;99.90;;;;;;5099005;28;20187;-81
2021/10/03 00:46:08;;;;;;;3.27;2.97;;;11.80;99.90;;;;;;5099329;28;20176;-81
2021/10/03 00:48:34;;;;;;;5.60;3.40;;;11.80;99.90;;;;;;5099154;28;20287;-80
2021/10/03 00:51:00;;;;;;;3.67;2.97;;;11.80;99.90;;;;;;5101696;28;20176;-80
2021/10/03 00:53:28;;;;;;;3.97;3.27;;;11.80;99.90;;;;;;5099968;28;20244;-81
2021/10/03 00:55:55;;;;;;;6.60;3.10;;;11.80;99.90;;;;;;5098060;28;20176;-80
2021/10/03 00:58:21;;;;;;;3.87;3.10;;;11.80;99.90;;;;;;5099749;28;20679;-80
2021/10/03 01:00:47;;;;;;;3.80;3.17;;;11.80;99.90;;;;;;5102271;28;20295;-80
2021/10/03 01:03:13;;;;;;;6.07;3.33;;;11.90;99.90;;;;;;5102294;28;20196;-80
2021/10/03 01:05:39;;;;;;;3.37;2.70;;;11.90;99.90;;;;;;5097045;28;20266;-80
2021/10/03 01:08:06;;;;;;;4.67;3.33;;;11.90;99.90;;;;;;5097636;28;20196;-80
2021/10/03 01:10:32;;;;;;;5.63;3.00;;;11.90;99.90;;;;;;5099014;28;20260;-81
2021/10/03 01:13:08;;;;;;;4.83;3.00;;;11.90;99.90;;;;;;5097491;28;20172;-80
2021/10/03 01:15:37;;;;;;;3.57;2.83;;;11.90;99.90;;;;;;5098224;28;20606;-80
2021/10/03 01:18:03;;;;;;;3.33;2.90;;;12.00;99.90;;;;;;5098520;28;20249;-80
2021/10/03 01:20:31;;;;;;;4.20;2.70;;;12.00;99.90;;;;;;5098711;28;20567;-80
2021/10/03 01:23:03;;;;;;;3.67;2.77;;;12.10;99.90;;;;;;5098641;28;20165;-80
2021/10/03 01:25:41;;;;;;;3.63;2.77;;;12.10;99.90;;;;;;5097725;28;20213;-80
2021/10/03 01:28:07;;;;;;;3.07;2.70;;;12.10;99.90;;;;;;5098978;28;20271;-80
2021/10/03 01:30:34;;;;;;;3.30;3.00;;;12.10;99.90;;;;;;5098720;28;20623;-80
2021/10/03 01:32:59;;;;;;;5.70;3.10;;;12.10;99.90;;;;;;5098202;28;20212;-80
2021/10/03 01:35:25;;;;;;;4.93;2.67;;;12.10;99.90;;;;;;5097062;28;20180;-80
2021/10/03 01:37:51;;;;;;;2.47;2.27;;;12.00;99.90;;;;;;5096561;28;20547;-80
2021/10/03 01:40:19;;;;;;;3.60;2.73;;;12.10;99.90;;;;;;5098731;28;20286;-80
2021/10/03 01:42:45;;;;;;;3.53;2.93;;;12.00;99.90;;;;;;5098771;28;20236;-81
2021/10/03 01:45:14;;;;;;;4.00;2.87;;;12.10;99.90;;;;;;5097370;28;20176;-80
2021/10/03 01:48:00;;;;;;;2.33;2.13;;;12.00;99.90;;;;;;5096727;28;20202;-80
2021/10/03 01:50:25;;;;;;;3.33;2.27;;;12.00;99.90;;;;;;5096827;28;20241;-80
2021/10/03 01:52:51;;;;;;;4.47;2.70;;;12.10;99.90;;;;;;5098657;28;20184;-80
2021/10/03 01:55:17;;;;;;;2.80;2.10;;;12.00;99.90;;;;;;5098512;28;20668;-80
2021/10/03 01:57:43;;;;;;;3.07;2.30;;;12.00;99.90;;;;;;5097525;28;20661;-80
2021/10/03 02:00:09;;;;;;;8.60;2.37;;;12.00;99.90;;;;;;5096508;28;20200;-80
2021/10/03 02:02:35;;;;;;;2.30;2.10;;;12.00;99.90;;;;;;5096222;28;20172;-81
2021/10/03 02:05:01;;;;;;;2.50;2.23;;;12.10;99.90;;;;;;5096384;28;20191;-80
2021/10/03 02:07:28;;;;;;;5.37;2.30;;;12.10;99.90;;;;;;5096493;28;20222;-80
2021/10/03 02:09:55;;;;;;;2.87;2.27;;;12.10;99.90;;;;;;5097850;28;20236;-80
2021/10/03 02:12:20;;;;;;;2.93;2.30;;;12.10;99.90;;;;;;5097937;28;20172;-80
2021/10/03 02:14:46;;;;;;;3.33;2.13;;;12.10;99.90;;;;;;5097515;28;20225;-80
2021/10/03 02:17:12;;;;;;;2.97;2.40;;;12.20;99.90;;;;;;5097596;28;20662;-80
2021/10/03 02:19:40;;;;;;;3.57;2.20;;;12.20;99.90;;;;;;5096379;28;20611;-80
2021/10/03 02:22:07;;;;;;;2.93;2.40;;;12.30;99.90;;;;;;5095890;28;20271;-81
2021/10/03 02:24:33;;;;;;;2.23;1.80;;;12.30;99.90;;;;;;5095776;28;20263;-80
2021/10/03 02:26:58;;;;;;;2.97;2.07;;;12.30;99.90;;;;;;5096736;28;20630;-80
2021/10/03 02:29:24;;;;;;;3.27;2.57;;;12.30;99.90;;;;;;5097548;28;20186;-80
2021/10/03 02:31:49;;;;;;;2.13;1.93;;;12.30;99.90;;;;;;5098448;28;20176;-80
2021/10/03 02:34:15;;;;;;;4.03;2.20;;;12.40;99.90;;;;;;5097776;28;20207;-80
2021/10/03 02:36:41;;;;;;;2.70;1.93;;;12.40;99.90;;;;;;5097341;28;20191;-81
2021/10/03 02:39:07;;;;;;;3.23;2.40;;;12.40;99.90;;;;;;5097742;28;20200;-80
2021/10/03 02:41:33;;;;;;;3.70;1.70;;;12.50;99.90;;;;;;5098670;28;20168;-80
2021/10/03 02:44:00;;;;;;;2.27;1.77;;;12.50;99.90;;;;;;5098128;28;20514;-80
2021/10/03 02:46:27;;;;;;;2.30;1.90;;;12.60;99.90;;;;;;5099752;28;20180;-81
2021/10/03 02:48:53;;;;;;;5.90;1.60;;;12.60;99.90;;;;;;5096716;28;20196;-80
2021/10/03 02:51:25;;;;;;;2.30;1.80;;;12.70;99.90;;;;;;5097545;28;20187;-80
2021/10/03 02:53:52;;;;;;;2.27;1.80;;;12.70;99.90;;;;;;5097570;28;20172;-80
2021/10/03 02:56:21;;;;;;;2.77;2.00;;;12.70;99.90;;;;;;5097587;28;20255;-80
2021/10/03 02:58:47;;;;;;;2.17;1.83;;;12.70;99.90;;;;;;5095871;28;20203;-80
2021/10/03 03:01:13;;;;;;;4.60;1.90;;;12.80;99.90;;;;;;5095612;28;20310;-80
2021/10/03 03:03:39;;;;;;;2.20;2.00;;;12.80;99.90;;;;;;5097718;28;20240;-80
2021/10/03 03:06:06;;;;;;;2.63;1.73;;;12.80;99.90;;;;;;5097894;28;20180;-80
2021/10/03 03:08:32;;;;;;;2.23;1.90;;;12.90;99.90;;;;;;5098628;28;20214;-80
2021/10/03 03:10:58;;;;;;;2.20;1.87;;;12.90;99.90;;;;;;5097224;28;20172;-80
2021/10/03 03:13:24;;;;;;;2.83;1.73;;;12.90;99.90;;;;;;5095916;28;20518;-80
2021/10/03 03:15:49;;;;;;;2.73;1.73;;;13.00;99.90;;;;;;5095619;28;20195;-80
2021/10/03 03:18:16;;;;;;;2.87;2.03;;;12.90;99.90;;;;;;5095681;28;20202;-80
2021/10/03 03:20:41;;;;;;;2.37;1.83;;;13.00;99.90;;;;;;5094084;28;20688;-80
2021/10/03 03:23:07;;;;;;;1.90;1.70;;;13.00;99.90;;;;;;5094356;28;20180;-80
2021/10/03 03:25:33;;;;;;;2.13;1.60;;;13.00;99.90;;;;;;5093438;28;20172;-80
2021/10/03 03:27:59;;;;;;;4.27;1.90;;;13.00;99.90;;;;;;5093488;28;20207;-80
2021/10/03 03:30:24;;;;;;;2.20;1.70;;;13.10;99.90;;;;;;5096489;28;20192;-80
2021/10/03 03:32:50;;;;;;;2.30;1.80;;;13.10;99.90;;;;;;5099051;28;20191;-80
2021/10/03 03:35:16;;;;;;;3.87;1.80;;;13.20;99.90;;;;;;5094822;28;20184;-80
2021/10/03 03:37:42;;;;;;;1.63;1.53;;;13.30;99.90;;;;;;5098682;28;20665;-80
2021/10/03 03:40:10;;;;;;;1.93;1.70;;;13.30;99.90;;;;;;5099517;28;20207;-81
2021/10/03 03:42:36;;;;;;;2.87;2.00;;;13.40;99.90;;;;;;5100485;28;20614;-80
2021/10/03 03:45:02;;;;;;;3.47;1.70;;;13.40;99.90;;;;;;5099064;28;20265;-81
2021/10/03 03:47:28;;;;;;;1.77;1.50;;;13.30;99.90;;;;;;5098691;28;20289;-80
2021/10/03 03:49:53;;;;;;;4.27;1.60;;;13.40;99.90;;;;;;5099180;28;20231;-80
2021/10/03 03:52:20;;;;;;;6.40;2.20;;;13.40;99.90;;;;;;5098806;28;20211;-80
2021/10/03 03:54:46;;;;;;;1.70;1.60;;;13.30;99.90;;;;;;5100226;28;20253;-80
2021/10/03 03:57:12;;;;;;;4.50;1.97;;;13.30;99.90;;;;;;5099533;28;20219;-80
2021/10/03 03:59:38;;;;;;;2.33;1.80;;;13.30;99.90;;;;;;5100109;28;20207;-80
2021/10/03 04:02:04;;;;;;;2.27;1.87;;;13.20;99.90;;;;;;5100478;28;20620;-80
2021/10/03 04:04:29;;;;;;;4.93;1.80;;;13.20;99.90;;;;;;5100235;28;20180;-80
2021/10/03 04:06:55;;;;;;;3.80;2.10;;;13.10;99.90;;;;;;5100143;28;20183;-80
2021/10/03 04:09:21;;;;;;;3.20;1.93;;;13.10;99.90;;;;;;5099966;28;20193;-80
2021/10/03 04:11:46;;;;;;;2.53;1.73;;;13.00;99.90;;;;;;5099925;28;20662;-80
2021/10/03 04:14:12;;;;;;;2.27;1.70;;;13.00;99.90;;;;;;5098798;28;20180;-80
2021/10/03 04:16:38;;;;;;;3.13;1.90;;;12.90;99.90;;;;;;5100352;28;20247;-80
2021/10/03 04:19:03;;;;;;;2.37;2.10;;;12.90;99.90;;;;;;5099788;28;20633;-80
2021/10/03 04:21:29;;;;;;;2.60;2.20;;;12.90;99.90;;;;;;5098586;28;20176;-80
2021/10/03 04:23:55;;;;;;;2.30;1.77;;;12.80;99.90;;;;;;5099447;28;20176;-80
2021/10/03 04:26:20;;;;;;;2.70;2.00;;;12.80;99.90;;;;;;5099901;28;20687;-80
2021/10/03 04:28:46;;;;;;;2.37;1.80;;;12.90;99.90;;;;;;5098085;28;20203;-80
2021/10/03 04:31:12;;;;;;;2.67;1.90;;;12.90;99.90;;;;;;5099836;28;20594;-80
2021/10/03 04:33:41;;;;;;;3.00;2.30;;;12.90;99.90;;;;;;5099100;28;20303;-81
2021/10/03 04:36:09;;;;;;;2.40;2.00;;;12.90;99.90;;;;;;5097961;28;20538;-80
2021/10/03 04:38:35;;;;;;;2.57;1.90;;;13.00;99.90;;;;;;5097768;28;20207;-80
2021/10/03 04:41:00;;;;;;;2.53;1.80;;;13.00;99.90;;;;;;5098679;28;20215;-80
2021/10/03 04:43:26;;;;;;;2.70;1.90;;;13.00;99.90;;;;;;5096656;28;20534;-80
2021/10/03 04:45:52;;;;;;;3.03;2.10;;;13.00;99.90;;;;;;5099202;28;20545;-81
2021/10/03 04:48:17;;;;;;;2.07;1.80;;;12.90;99.90;;;;;;5099804;28;20687;-81
2021/10/03 04:50:43;;;;;;;3.47;2.73;;;13.00;99.90;;;;;;5098360;28;20659;-81
2021/10/03 04:53:09;;;;;;;2.43;2.10;;;12.90;99.90;;;;;;5098464;28;20222;-80
2021/10/03 04:55:34;;;;;;;5.93;1.90;;;13.00;99.90;;;;;;5099973;28;20626;-80
2021/10/03 04:58:00;;;;;;;2.67;1.90;;;13.00;99.90;;;;;;5100474;28;20231;-81
2021/10/03 05:00:26;;;;;;;2.57;1.70;;;13.00;99.90;;;;;;5100297;28;20590;-80
2021/10/03 05:02:51;;;;;;;2.20;1.80;;;13.00;99.90;;;;;;5101230;28;20180;-80
2021/10/03 05:05:17;;;;;;;1.90;1.67;;;13.10;99.90;;;;;;5101365;28;20214;-80
2021/10/03 05:07:42;;;;;;;3.13;2.07;;;13.20;99.90;;;;;;5101777;28;20185;-80
2021/10/03 05:10:08;;;;;;;2.60;2.00;;;13.20;99.90;;;;;;5109814;28;20172;-79
2021/10/03 05:12:34;;;;;;;2.43;1.60;;;13.30;99.90;;;;;;5108908;28;20172;-80
2021/10/03 05:14:59;;;;;;;1.60;1.47;;;13.40;99.90;;;;;;5111774;28;20168;-79
2021/10/03 05:17:25;;;;;;;2.57;1.90;;;13.40;99.90;;;;;;5099542;28;20677;-82
2021/10/03 05:19:51;;;;;;;2.10;1.90;;;13.40;99.90;;;;;;5098785;28;20302;-80
2021/10/03 05:22:17;;;;;;;6.73;2.03;;;13.40;99.90;;;;;;5099502;28;20168;-80
2021/10/03 05:24:42;;;;;;;2.07;1.87;;;13.40;99.90;;;;;;5097969;28;20176;-81
2021/10/03 05:27:08;;;;;;;2.67;1.90;;;13.40;99.90;;;;;;5097586;28;20176;-81
2021/10/03 05:29:34;;;;;;;3.00;1.80;;;13.40;99.90;;;;;;5099257;28;20184;-81
2021/10/03 05:31:59;;;;;;;2.60;1.70;;;13.30;99.90;;;;;;5097830;28;20180;-80
2021/10/03 05:34:25;;;;;;;4.07;1.80;;;13.40;99.90;;;;;;5099539;28;20180;-80
2021/10/03 05:36:50;;;;;;;3.20;2.07;;;13.30;99.90;;;;;;5099104;28;20259;-80
2021/10/03 05:39:16;;;;;;;2.60;2.20;;;13.40;99.90;;;;;;5096957;28;20210;-81
2021/10/03 05:41:42;;;;;;;2.07;1.73;;;13.30;99.90;;;;;;5098795;28;20242;-80
2021/10/03 05:44:07;;;;;;;2.10;1.87;;;13.30;99.90;;;;;;5097435;28;20175;-81
2021/10/03 05:46:33;;;;;;;2.30;2.00;;;13.30;99.90;;;;;;5098929;28;20204;-80
2021/10/03 05:48:59;;;;;;;2.77;1.53;;;13.30;99.90;;;;;;5098877;28;20187;-80
2021/10/03 05:51:25;;;;;;;2.17;1.93;;;13.40;99.90;;;;;;5097455;28;20229;-80
2021/10/03 05:53:51;;;;;;;2.50;1.90;;;13.40;99.90;;;;;;5097494;28;20175;-80
2021/10/03 05:56:17;;;;;;;2.23;1.90;;;13.40;99.90;;;;;;5097270;28;20188;-80
2021/10/03 05:58:42;;;;;;;5.10;2.30;;;13.50;99.90;;;;;;5097130;28;20199;-81
2021/10/03 06:01:08;;;;;;;2.53;2.13;;;13.50;99.90;;;;;;5098337;28;20591;-80
2021/10/03 06:03:33;;;;;;;2.20;1.80;;;13.50;99.90;;;;;;5098777;28;20168;-80
2021/10/03 06:05:59;;;;;;;2.87;1.90;;;13.60;99.90;;;;;;5098604;28;20225;-80
2021/10/03 06:08:25;;;;;;;2.40;2.10;;;13.60;99.90;;;;;;5098005;28;20199;-80
2021/10/03 06:10:50;;;;;;;4.00;2.00;;;13.70;99.90;;;;;;5097076;28;20180;-81
2021/10/03 06:13:16;;;;;;;3.87;1.93;;;13.80;99.90;;;;;;5096157;28;20668;-80
2021/10/03 06:15:43;;;;;;;3.37;2.03;;;13.90;99.90;;;;;;5098316;28;20604;-80
2021/10/03 06:18:13;;;;;;;5.07;1.93;;;14.00;99.90;;;;;;5097065;28;20184;-80
2021/10/03 06:20:39;;;;;;;1.97;1.73;;;14.00;99.90;;;;;;5097143;28;20195;-80
2021/10/03 06:23:05;;;;;;;2.03;1.77;;;14.10;99.90;;;;;;5095676;28;20532;-80
2021/10/03 06:25:31;;;;;;;2.40;1.80;;;14.20;99.90;;;;;;5095444;28;20175;-80
2021/10/03 06:27:56;;;;;;;2.50;2.10;;;14.30;99.90;;;;;;5095610;28;20196;-80
2021/10/03 06:30:23;;;;;;;5.13;2.07;;;14.40;99.90;;;;;;5095114;28;20207;-80
2021/10/03 06:32:48;;;;;;;3.20;1.93;;;14.50;99.90;;;;;;5095890;28;20199;-80
2021/10/03 06:35:14;;;;;;;3.00;2.07;;;14.70;99.90;;;;;;5093915;28;20554;-80
2021/10/03 06:37:40;;;;;;;2.43;1.80;;;14.70;99.90;;;;;;5095901;28;20720;-80
2021/10/03 06:40:07;;;;;;;2.00;1.77;;;14.70;99.90;;;;;;5096666;28;20200;-80
2021/10/03 06:42:33;;;;;;;2.57;1.87;;;14.70;99.90;;;;;;5096725;28;20186;-80
2021/10/03 06:44:58;;;;;;;1.60;1.50;;;14.80;99.90;;;;;;5097798;28;20595;-81
2021/10/03 06:47:24;;;;;;;4.20;1.80;;;15.00;99.90;;;;;;5097629;28;20184;-81
2021/10/03 06:49:50;;;;;;;2.13;1.67;;;15.20;99.90;;;;;;5097125;28;20196;-81
2021/10/03 06:52:15;;;;;;;2.60;1.90;;;15.30;99.90;;;;;;5097524;28;20179;-81
2021/10/03 06:54:41;;;;;;;3.00;1.60;;;15.40;99.90;;;;;;5096837;28;20180;-81
2021/10/03 06:57:07;;;;;;;2.60;1.60;;;15.60;99.90;;;;;;5097514;28;20272;-81
2021/10/03 06:59:33;;;;;;;1.90;1.57;;;15.70;99.90;;;;;;5098032;28;20207;-81
2021/10/03 07:02:07;;;;;;;2.37;2.00;;;15.90;99.90;;;;;;5096438;28;20202;-80
2021/10/03 07:04:33;;;;;;;2.50;1.80;;;16.10;99.90;;;;;;5098621;28;20172;-81
2021/10/03 07:06:59;;;;;;;3.17;1.90;;;16.30;99.90;;;;;;5096896;28;20233;-81
2021/10/03 07:09:25;;;;;;;2.23;2.03;;;16.50;99.90;;;;;;5096648;28;20634;-81
2021/10/03 07:11:51;;;;;;;1.80;1.67;;;16.80;99.90;;;;;;5098631;28;20206;-81
2021/10/03 07:14:17;;;;;;;1.93;1.73;;;17.00;99.90;;;;;;5101933;28;20172;-80
2021/10/03 07:16:43;;;;;;;3.83;1.73;;;17.30;99.90;;;;;;5101534;28;20197;-80
2021/10/03 07:19:08;;;;;;;1.97;1.60;;;17.50;99.90;;;;;;5108398;28;20196;-80
2021/10/03 07:21:34;;;;;;;2.33;1.67;;;17.80;99.90;;;;;;5105243;28;20183;-79
2021/10/03 07:24:00;;;;;;;2.97;1.80;;;17.90;99.90;;;;;;5104563;28;20168;-80
2021/10/03 07:26:26;;;;;;;2.67;1.60;;;18.20;99.90;;;;;;5102020;28;20562;-81
2021/10/03 07:28:52;;;;;;;2.30;1.73;;;18.30;99.90;;;;;;5102026;28;20188;-80
2021/10/03 07:31:19;;;;;;;2.00;1.53;;;18.40;99.90;;;;;;5102476;28;20179;-80
2021/10/03 07:33:45;;;;;;;5.13;1.50;;;18.60;99.90;;;;;;5100643;28;20215;-80
2021/10/03 07:36:10;;;;;;;1.97;1.77;;;18.70;99.90;;;;;;5101471;28;20172;-80
2021/10/03 07:38:36;;;;;;;1.80;1.70;;;18.80;99.90;;;;;;5099400;28;20284;-80
2021/10/03 07:41:02;;;;;;;3.30;1.70;;;18.90;99.90;;;;;;5100369;28;20208;-80
2021/10/03 07:43:28;;;;;;;1.93;1.73;;;19.10;99.90;;;;;;5100358;28;20248;-80
2021/10/03 07:45:54;;;;;;;1.87;1.57;;;19.30;99.90;;;;;;5100669;28;20165;-80
2021/10/03 07:48:19;;;;;;;6.37;2.17;;;19.60;99.90;;;;;;5100182;28;20266;-80
2021/10/03 07:50:45;;;;;;;2.83;1.70;;;19.90;99.50;;;;;;5098926;28;20176;-80
2021/10/03 07:53:11;;;;;;;2.97;1.70;;;20.30;99.30;;;;;;5099137;28;20265;-80
2021/10/03 07:55:36;;;;;;;2.00;1.63;;;21.00;97.80;;;;;;5098910;28;20698;-80
2021/10/03 07:58:07;;;;;;;4.67;1.90;;;21.60;96.60;;;;;;5100481;28;20209;-79
2021/10/03 08:00:33;;;;;;;3.00;1.80;;;21.90;95.00;;;;;;5098923;28;20232;-80
2021/10/03 08:02:59;;;;;;;3.23;1.87;;;22.20;93.40;;;;;;5099124;28;20536;-80
2021/10/03 08:05:25;;;;;;;2.83;1.73;;;22.60;93.60;;;;;;5098080;28;20247;-80
2021/10/03 08:07:50;;;;;;;1.97;1.80;;;23.00;90.70;;;;;;5100439;28;20195;-80
2021/10/03 08:10:16;;;;;;;2.63;2.13;;;23.20;90.20;;;;;;5101661;28;20178;-79
2021/10/03 08:12:42;;;;;;;2.40;1.70;;;23.20;89.90;;;;;;5101100;28;20286;-79
2021/10/03 08:15:08;;;;;;;1.83;1.50;;;22.70;88.80;;;;;;5097848;28;20184;-80
2021/10/03 08:17:34;;;;;;;3.00;1.73;;;22.00;89.90;;;;;;5097348;28;20207;-80
2021/10/03 08:20:00;;;;;;;2.40;1.97;;;21.60;90.50;;;;;;5098157;28;20192;-80
2021/10/03 08:22:26;;;;;;;2.27;1.80;;;21.30;91.20;;;;;;5099263;28;20172;-80
2021/10/03 08:24:51;;;;;;;2.53;2.00;;;21.00;91.00;;;;;;5099987;28;20173;-80
2021/10/03 08:27:17;;;;;;;1.73;1.60;;;20.80;91.70;;;;;;5099138;28;20179;-79
2021/10/03 08:29:42;;;;;;;1.83;1.60;;;20.70;91.80;;;;;;5101110;28;20242;-80
2021/10/03 08:32:08;;;;;;;5.30;1.80;;;20.80;92.00;;;;;;5098928;28;20233;-80
2021/10/03 08:34:34;;;;;;;3.10;1.67;;;22.00;92.20;;;;;;5100044;28;20179;-80
2021/10/03 08:36:59;;;;;;;3.30;1.57;;;22.90;90.40;;;;;;5099746;28;20251;-81
2021/10/03 08:39:25;;;;;;;1.60;1.50;;;23.10;89.70;;;;;;5099476;28;20200;-80
2021/10/03 08:41:51;;;;;;;1.90;1.70;;;22.70;89.60;;;;;;5098665;28;20237;-80
2021/10/03 08:44:18;;;;;;;2.93;2.00;;;22.30;90.10;;;;;;5096912;28;20168;-80
2021/10/03 08:46:45;;;;;;;2.00;1.70;;;22.20;91.20;;;;;;5099313;28;20168;-80
2021/10/03 08:49:10;;;;;;;2.70;1.70;;;22.40;90.80;;;;;;5099565;28;20564;-79
2021/10/03 08:51:36;;;;;;;2.67;2.20;;;22.50;89.10;;;;;;5097765;28;20196;-80
2021/10/03 08:54:02;;;;;;;2.00;1.70;;;22.50;89.70;;;;;;5097584;28;20175;-80
2021/10/03 08:56:29;;;;;;;1.60;1.40;;;22.40;90.10;;;;;;5098195;28;20172;-80
2021/10/03 08:58:55;;;;;;;5.30;1.80;;;22.60;90.80;;;;;;5082893;28;20197;-80
2021/10/03 09:01:23;;;;;;;2.03;1.70;;;23.30;90.80;;;;;;5091746;28;20244;-80
2021/10/03 09:03:51;;;;;;;1.83;1.40;;;24.40;87.60;;;;;;5079482;28;20254;-80
2021/10/03 09:06:17;;;;;;;1.53;1.43;;;24.70;85.40;;;;;;5089849;28;20173;-79
2021/10/03 09:08:45;;;;;;;2.40;1.50;;;25.00;83.20;;;;;;5097319;28;20206;-80
2021/10/03 09:11:13;;;;;;;1.77;1.47;;;25.20;82.60;;;;;;5084970;28;20186;-80
2021/10/03 09:13:47;;;;;;;5.87;1.70;;;25.00;81.20;;;;;;5075646;28;20180;-79
2021/10/03 09:16:13;;;;;;;1.70;1.60;;;24.50;82.70;;;;;;5075098;28;20192;-80
2021/10/03 09:18:45;;;;;;;2.13;1.40;;;24.20;84.20;;;;;;5077973;28;20562;-79
2021/10/03 09:21:42;;;;;;;1.80;1.70;;;24.00;80.30;;;;;;5077370;28;20200;-81
2021/10/03 09:24:12;;;;;;;1.40;1.30;;;24.10;85.00;;;;;;5093008;28;20245;-82
2021/10/03 09:26:51;;;;;;;1.70;1.60;;;24.30;81.90;;;;;;5092078;28;20174;-82
2021/10/03 09:29:25;;;;;;;1.77;1.67;;;24.70;83.30;;;;;;5083012;28;20196;-82
2021/10/03 09:32:09;;;;;;;2.93;1.67;;;24.90;83.50;;;;;;5094993;28;20202;-81
2021/10/03 09:34:38;;;;;;;2.00;1.43;;;25.20;82.70;;;;;;5091622;28;20221;-81
2021/10/03 09:37:20;;;;;;;2.10;1.57;;;24.90;76.80;;;;;;5079485;28;20176;-80
2021/10/03 09:39:50;;;;;;;1.50;1.30;;;24.70;79.50;;;;;;5076648;28;20548;-80
2021/10/03 09:42:17;;;;;;;3.40;2.00;;;24.60;79.00;;;;;;5080343;28;20640;-80
2021/10/03 09:45:08;;;;;;;1.70;1.60;;;24.50;79.80;;;;;;5081721;28;20173;-80
2021/10/03 09:47:35;;;;;;;1.63;1.53;;;24.40;85.00;;;;;;5077805;28;20192;-80
2021/10/03 09:50:03;;;;;;;1.80;1.57;;;24.40;80.00;;;;;;5077672;28;20169;-80
2021/10/03 09:52:30;;;;;;;3.47;2.10;;;24.20;84.00;;;;;;5076302;28;20535;-80
2021/10/03 09:54:57;;;;;;;1.70;1.57;;;24.20;80.70;;;;;;5075999;28;20213;-80
2021/10/03 09:57:22;;;;;;;3.10;1.80;;;24.20;82.80;;;;;;5076720;28;20193;-80
2021/10/03 09:59:49;;;;;;;1.73;1.63;;;24.40;84.20;;;;;;5077933;28;20553;-80
2021/10/03 10:02:15;;;;;;;4.27;1.60;;;24.60;83.60;;;;;;5076638;28;20263;-80
2021/10/03 10:04:43;;;;;;;1.83;1.70;;;24.90;85.60;;;;;;5076836;28;20595;-80
2021/10/03 10:07:09;;;;;;;1.60;1.50;;;24.80;80.20;;;;;;5077587;28;20183;-80
2021/10/03 10:09:35;;;;;;;1.60;1.50;;;24.70;80.50;;;;;;5077560;28;20173;-80
2021/10/03 10:12:06;;;;;;;3.97;1.80;;;24.60;84.80;;;;;;5077474;28;20231;-80
2021/10/03 10:14:39;;;;;;;2.90;1.60;;;24.50;82.70;;;;;;5077794;28;20179;-80
2021/10/03 10:17:35;;;;;;;3.60;1.60;;;24.30;81.60;;;;;;5076292;28;20191;-80
2021/10/03 10:20:21;;;;;;;3.37;1.90;;;24.30;82.70;;;;;;5074915;28;20210;-80
2021/10/03 10:23:01;;;;;;;1.77;1.47;;;24.20;88.20;;;;;;5067137;28;20704;-80
2021/10/03 10:25:49;;;;;;;1.97;1.77;;;24.30;85.20;;;;;;5076770;28;20181;-80
2021/10/03 10:28:28;;;;;;;2.80;1.70;;;24.50;87.80;;;;;;5076278;28;20604;-80
2021/10/03 10:31:01;;;;;;;2.57;1.70;;;24.80;82.50;;;;;;5076176;28;20172;-80
2021/10/03 10:33:47;;;;;;;3.00;1.50;;;24.90;82.50;;;;;;5078186;28;20181;-80
2021/10/03 10:36:15;;;;;;;1.67;1.50;;;25.10;84.90;;;;;;5076441;28;20275;-80
2021/10/03 10:38:41;;;;;;;4.43;1.60;;;25.90;90.20;;;;;;5075644;28;20617;-80
2021/10/03 10:41:47;;;;;;;1.30;1.20;;;26.60;83.70;;;;;;5077551;28;20238;-80
2021/10/03 10:44:24;;;;;;;1.20;1.10;;;27.20;78.80;;;;;;5014914;28;20599;-80
2021/10/03 10:46:53;;;;;;;1.40;1.30;;;27.40;80.70;;;;;;5019522;28;20188;-80
2021/10/03 10:49:38;;;;;;;1.97;1.30;;;27.40;78.00;;;;;;5046024;28;20203;-80
2021/10/03 10:52:19;;;;;;;2.17;1.10;;;26.90;77.20;;;;;;5079002;28;20180;-80
2021/10/03 10:55:10;;;;;;;2.90;1.40;;;26.50;77.60;;;;;;5077345;28;20671;-81
2021/10/03 10:57:48;;;;;;;1.40;1.20;;;26.10;76.60;;;;;;5068719;28;20212;-80
2021/10/03 11:00:20;;;;;;;1.30;1.20;;;25.60;78.70;;;;;;5078587;28;20203;-82
2021/10/03 11:02:49;;;;;;;1.23;1.13;;;25.40;76.80;;;;;;5078970;28;20269;-81
2021/10/03 11:05:40;;;;;;;1.60;1.40;;;25.20;81.20;;;;;;5079925;28;20182;-81
2021/10/03 11:08:19;;;;;;;3.20;1.30;;;25.10;80.10;;;;;;5069115;28;20225;-80
2021/10/03 11:10:57;;;;;;;1.27;1.17;;;24.90;77.80;;;;;;5079846;28;20201;-81
2021/10/03 11:13:38;;;;;;;1.90;1.30;;;24.80;79.20;;;;;;5078221;28;20233;-81
2021/10/03 11:16:19;;;;;;;1.27;1.17;;;24.70;77.70;;;;;;5078756;28;20204;-81
2021/10/03 11:18:51;;;;;;;1.63;1.40;;;24.70;77.70;;;;;;5076485;28;20206;-81
2021/10/03 11:21:19;;;;;;;1.87;1.47;;;24.70;77.20;;;;;;5077016;28;20250;-81
2021/10/03 11:23:47;;;;;;;1.40;1.30;;;25.00;77.90;;;;;;5077009;28;20180;-81
2021/10/03 11:26:13;;;;;;;1.40;1.30;;;25.00;78.50;;;;;;5077324;28;20302;-82
2021/10/03 11:28:56;;;;;;;1.73;1.63;;;25.10;77.50;;;;;;5076652;28;20236;-81
2021/10/03 11:31:47;;;;;;;1.43;1.27;;;25.00;76.70;;;;;;5076804;28;20181;-81
2021/10/03 11:34:41;;;;;;;1.60;1.50;;;25.10;75.60;;;;;;5076823;28;20181;-82
2021/10/03 11:37:14;;;;;;;1.40;1.30;;;25.60;83.20;;;;;;5077324;28;20191;-82
2021/10/03 11:39:47;;;;;;;1.30;1.20;;;25.60;87.00;;;;;;5076622;28;20211;-82
2021/10/03 11:42:18;;;;;;;1.47;1.37;;;25.70;78.50;;;;;;5078609;28;20165;-81
2021/10/03 11:44:45;;;;;;;5.47;1.50;;;26.80;79.60;;;;;;5077720;28;20163;-82
2021/10/03 11:47:16;;;;;;;6.90;1.30;;;28.10;71.00;;;;;;5078719;28;20310;-82
2021/10/03 11:49:45;;;;;;;1.43;1.27;;;28.20;71.90;;;;;;5080132;28;20576;-80
2021/10/03 11:52:15;;;;;;;2.43;1.30;;;29.30;76.70;;;;;;5077296;28;20178;-82
2021/10/03 11:54:47;;;;;;;1.60;1.13;;;30.90;77.60;;;;;;5077093;28;20590;-82
2021/10/03 11:57:16;;;;;;;2.27;0.90;;;32.40;66.70;;;;;;5076062;28;20183;-82
2021/10/03 11:59:42;;;;;;;1.07;1.00;;;32.90;57.70;;;;;;5079846;28;20197;-80
2021/10/03 12:02:15;;;;;;;3.57;1.23;;;32.90;57.10;;;;;;5077241;28;20188;-82
2021/10/03 12:04:58;;;;;;;1.30;1.20;;;33.00;56.40;;;;;;5076399;28;20175;-82
2021/10/03 12:07:25;;;;;;;1.30;1.20;;;33.10;55.70;;;;;;5081267;28;20212;-83
2021/10/03 12:09:59;;;;;;;1.53;1.10;;;33.30;57.40;;;;;;5082000;28;20538;-83
2021/10/03 12:12:54;;;;;;;1.07;0.97;;;33.30;50.90;;;;;;5084276;28;20266;-83
2021/10/03 12:15:40;;;;;;;1.10;1.00;;;32.60;49.70;;;;;;5080803;28;20249;-81
2021/10/03 12:18:08;;;;;;;2.00;1.27;;;32.00;50.20;;;;;;5080598;28;20190;-81
2021/10/03 12:20:58;;;;;;;1.87;1.20;;;32.60;51.70;;;;;;5079053;28;20210;-80
2021/10/03 12:23:42;;;;;;;2.70;1.10;;;34.00;52.40;;;;;;5079721;28;20158;-80
2021/10/03 12:26:17;;;;;;;1.97;1.30;;;34.90;47.00;;;;;;5078183;28;20179;-81
2021/10/03 12:29:04;;;;;;;1.10;1.00;;;35.20;45.30;;;;;;5079456;28;20731;-79
2021/10/03 12:31:51;;;;;;;3.53;1.10;;;34.60;42.90;;;;;;5077402;28;20183;-79
2021/10/03 12:34:23;;;;;;;2.00;1.13;;;33.80;44.50;;;;;;5078668;28;20609;-79
2021/10/03 12:36:54;;;;;;;1.20;1.10;;;34.40;44.70;;;;;;5078578;28;20161;-80
2021/10/03 12:39:21;;;;;;;3.00;1.10;;;33.80;45.40;;;;;;5078039;28;20203;-81
2021/10/03 12:41:53;;;;;;;1.53;1.43;;;33.10;43.10;;;;;;5079870;28;20179;-80
2021/10/03 12:44:22;;;;;;;1.10;1.10;;;33.10;47.70;;;;;;5077554;28;20172;-79
2021/10/03 12:46:48;;;;;;;1.30;1.20;;;33.60;49.10;;;;;;5078468;28;20180;-79
2021/10/03 12:49:14;;;;;;;1.77;1.20;;;34.10;46.60;;;;;;5078370;28;20200;-79
2021/10/03 12:51:40;;;;;;;2.27;1.00;;;34.40;50.40;;;;;;5078559;28;20651;-79
2021/10/03 12:54:05;;;;;;;1.30;1.20;;;35.20;43.20;;;;;;5076665;28;20182;-80
2021/10/03 12:56:31;;;;;;;0.97;0.97;;;34.80;42.10;;;;;;5081211;28;20189;-79